sensor_id;sensor_type;location;lat;lon;timestamp;P1;durP1;ratioP1;P2;durP2;ratioP2
11620;SDS011;5866;49.094;11.900;2023-03-01T00:01:13;26.17;;;16.20;;
11620;SDS011;5866;49.094;11.900;2023-03-01T00:03:42;25.10;;;15.13;;
11620;SDS011;5866;49.094;11.900;2023-03-01T00:06:10;22.83;;;15.37;;
11620;SDS011;5866;49.094;11.900;2023-03-01T00:08:39;21.63;;;14.93;;
11620;SDS011;5866;49.094;11.900;2023-03-01T00:11:08;25.10;;;16.00;;
11620;SDS011;5866;49.094;11.900;2023-03-01T00:13:39;22.30;;;15.03;;
11620;SDS011;5866;49.094;11.900;2023-03-01T00:16:08;26.37;;;16.10;;
11620;SDS011;5866;49.094;11.900;2023-03-01T00:18:39;25.10;;;15.97;;
11620;SDS011;5866;49.094;11.900;2023-03-01T00:21:06;22.60;;;14.83;;
11620;SDS011;5866;49.094;11.900;2023-03-01T00:23:34;22.30;;;15.33;;
11620;SDS011;5866;49.094;11.900;2023-03-01T00:26:06;21.80;;;16.47;;
11620;SDS011;5866;49.094;11.900;2023-03-01T00:28:36;22.13;;;15.40;;
11620;SDS011;5866;49.094;11.900;2023-03-01T00:31:04;23.30;;;15.90;;
11620;SDS011;5866;49.094;11.900;2023-03-01T00:33:32;22.17;;;14.80;;
11620;SDS011;5866;49.094;11.900;2023-03-01T00:36:00;20.63;;;15.70;;
11620;SDS011;5866;49.094;11.900;2023-03-01T00:38:28;18.77;;;14.07;;
11620;SDS011;5866;49.094;11.900;2023-03-01T00:41:02;20.60;;;14.07;;
11620;SDS011;5866;49.094;11.900;2023-03-01T00:43:31;23.40;;;15.03;;
11620;SDS011;5866;49.094;11.900;2023-03-01T00:46:02;23.07;;;14.67;;
11620;SDS011;5866;49.094;11.900;2023-03-01T00:48:31;24.27;;;16.03;;
11620;SDS011;5866;49.094;11.900;2023-03-01T00:51:03;20.63;;;14.77;;
11620;SDS011;5866;49.094;11.900;2023-03-01T00:53:32;25.17;;;15.87;;
11620;SDS011;5866;49.094;11.900;2023-03-01T00:56:00;20.77;;;12.43;;
11620;SDS011;5866;49.094;11.900;2023-03-01T00:58:28;21.53;;;16.23;;
11620;SDS011;5866;49.094;11.900;2023-03-01T01:00:57;20.77;;;16.20;;
11620;SDS011;5866;49.094;11.900;2023-03-01T01:03:25;22.67;;;16.33;;
11620;SDS011;5866;49.094;11.900;2023-03-01T01:05:53;21.00;;;15.97;;
11620;SDS011;5866;49.094;11.900;2023-03-01T01:08:20;22.83;;;15.13;;
11620;SDS011;5866;49.094;11.900;2023-03-01T01:10:48;21.67;;;14.93;;
11620;SDS011;5866;49.094;11.900;2023-03-01T01:13:18;22.00;;;16.33;;
11620;SDS011;5866;49.094;11.900;2023-03-01T01:15:46;20.47;;;15.00;;
11620;SDS011;5866;49.094;11.900;2023-03-01T01:18:15;21.57;;;15.93;;
11620;SDS011;5866;49.094;11.900;2023-03-01T01:20:42;21.03;;;15.00;;
11620;SDS011;5866;49.094;11.900;2023-03-01T01:23:10;24.97;;;16.80;;
11620;SDS011;5866;49.094;11.900;2023-03-01T01:25:37;19.30;;;15.80;;
11620;SDS011;5866;49.094;11.900;2023-03-01T01:28:05;23.97;;;16.97;;
11620;SDS011;5866;49.094;11.900;2023-03-01T01:30:32;19.97;;;14.73;;
11620;SDS011;5866;49.094;11.900;2023-03-01T01:33:00;25.33;;;17.53;;
11620;SDS011;5866;49.094;11.900;2023-03-01T01:35:29;25.90;;;17.30;;
11620;SDS011;5866;49.094;11.900;2023-03-01T01:37:56;23.43;;;17.40;;
11620;SDS011;5866;49.094;11.900;2023-03-01T01:40:24;23.73;;;16.00;;
11620;SDS011;5866;49.094;11.900;2023-03-01T01:42:51;22.90;;;17.77;;
11620;SDS011;5866;49.094;11.900;2023-03-01T01:45:29;22.57;;;16.17;;
11620;SDS011;5866;49.094;11.900;2023-03-01T01:48:00;24.87;;;16.77;;
11620;SDS011;5866;49.094;11.900;2023-03-01T01:50:33;24.67;;;16.13;;
11620;SDS011;5866;49.094;11.900;2023-03-01T01:53:05;22.97;;;16.73;;
11620;SDS011;5866;49.094;11.900;2023-03-01T01:55:36;25.00;;;14.97;;
11620;SDS011;5866;49.094;11.900;2023-03-01T01:58:09;24.67;;;14.87;;
11620;SDS011;5866;49.094;11.900;2023-03-01T02:00:37;22.20;;;15.07;;
11620;SDS011;5866;49.094;11.900;2023-03-01T02:03:07;24.20;;;15.40;;
11620;SDS011;5866;49.094;11.900;2023-03-01T02:05:40;21.33;;;13.97;;
11620;SDS011;5866;49.094;11.900;2023-03-01T02:08:20;23.87;;;16.57;;
11620;SDS011;5866;49.094;11.900;2023-03-01T02:10:50;24.13;;;18.17;;
11620;SDS011;5866;49.094;11.900;2023-03-01T02:13:19;24.60;;;16.30;;
11620;SDS011;5866;49.094;11.900;2023-03-01T02:15:46;24.93;;;16.67;;
11620;SDS011;5866;49.094;11.900;2023-03-01T02:18:15;25.30;;;18.43;;
11620;SDS011;5866;49.094;11.900;2023-03-01T02:20:48;22.67;;;15.67;;
11620;SDS011;5866;49.094;11.900;2023-03-01T02:23:24;28.63;;;20.93;;
11620;SDS011;5866;49.094;11.900;2023-03-01T02:25:54;23.53;;;17.63;;
11620;SDS011;5866;49.094;11.900;2023-03-01T02:28:30;25.93;;;19.87;;
11620;SDS011;5866;49.094;11.900;2023-03-01T02:30:59;27.30;;;18.83;;
11620;SDS011;5866;49.094;11.900;2023-03-01T02:33:45;23.23;;;17.13;;
11620;SDS011;5866;49.094;11.900;2023-03-01T02:36:15;26.77;;;18.00;;
11620;SDS011;5866;49.094;11.900;2023-03-01T02:38:47;25.67;;;18.30;;
11620;SDS011;5866;49.094;11.900;2023-03-01T02:41:15;23.40;;;14.67;;
11620;SDS011;5866;49.094;11.900;2023-03-01T02:43:47;21.93;;;13.50;;
11620;SDS011;5866;49.094;11.900;2023-03-01T02:46:15;23.67;;;15.13;;
11620;SDS011;5866;49.094;11.900;2023-03-01T02:48:46;27.00;;;14.60;;
11620;SDS011;5866;49.094;11.900;2023-03-01T02:51:18;24.77;;;17.90;;
11620;SDS011;5866;49.094;11.900;2023-03-01T02:53:58;24.67;;;16.47;;
11620;SDS011;5866;49.094;11.900;2023-03-01T02:56:35;20.50;;;14.40;;
11620;SDS011;5866;49.094;11.900;2023-03-01T02:59:04;27.40;;;17.47;;
11620;SDS011;5866;49.094;11.900;2023-03-01T03:01:32;29.10;;;16.73;;
11620;SDS011;5866;49.094;11.900;2023-03-01T03:04:03;25.93;;;17.47;;
11620;SDS011;5866;49.094;11.900;2023-03-01T03:06:32;25.73;;;18.77;;
11620;SDS011;5866;49.094;11.900;2023-03-01T03:08:59;24.50;;;18.07;;
11620;SDS011;5866;49.094;11.900;2023-03-01T03:11:27;25.20;;;17.07;;
11620;SDS011;5866;49.094;11.900;2023-03-01T03:13:55;25.50;;;17.40;;
11620;SDS011;5866;49.094;11.900;2023-03-01T03:16:25;27.20;;;19.10;;
11620;SDS011;5866;49.094;11.900;2023-03-01T03:18:53;25.47;;;18.33;;
11620;SDS011;5866;49.094;11.900;2023-03-01T03:21:20;26.23;;;20.43;;
11620;SDS011;5866;49.094;11.900;2023-03-01T03:23:48;24.30;;;18.10;;
11620;SDS011;5866;49.094;11.900;2023-03-01T03:26:15;26.07;;;17.97;;
11620;SDS011;5866;49.094;11.900;2023-03-01T03:28:43;27.17;;;17.37;;
11620;SDS011;5866;49.094;11.900;2023-03-01T03:31:10;25.43;;;16.33;;
11620;SDS011;5866;49.094;11.900;2023-03-01T03:33:39;26.00;;;17.57;;
11620;SDS011;5866;49.094;11.900;2023-03-01T03:36:07;27.57;;;19.50;;
11620;SDS011;5866;49.094;11.900;2023-03-01T03:38:39;26.70;;;18.10;;
11620;SDS011;5866;49.094;11.900;2023-03-01T03:41:07;26.77;;;18.47;;
11620;SDS011;5866;49.094;11.900;2023-03-01T03:43:36;26.53;;;19.03;;
11620;SDS011;5866;49.094;11.900;2023-03-01T03:46:05;27.33;;;18.40;;
11620;SDS011;5866;49.094;11.900;2023-03-01T03:48:34;24.93;;;15.93;;
11620;SDS011;5866;49.094;11.900;2023-03-01T03:51:04;25.80;;;17.50;;
11620;SDS011;5866;49.094;11.900;2023-03-01T03:53:32;23.90;;;17.27;;
11620;SDS011;5866;49.094;11.900;2023-03-01T03:56:00;24.93;;;18.50;;
11620;SDS011;5866;49.094;11.900;2023-03-01T03:58:28;25.07;;;17.97;;
11620;SDS011;5866;49.094;11.900;2023-03-01T04:00:56;25.33;;;17.93;;
11620;SDS011;5866;49.094;11.900;2023-03-01T04:03:25;25.97;;;18.90;;
11620;SDS011;5866;49.094;11.900;2023-03-01T04:05:53;26.93;;;18.90;;
11620;SDS011;5866;49.094;11.900;2023-03-01T04:08:22;26.30;;;17.30;;
11620;SDS011;5866;49.094;11.900;2023-03-01T04:10:51;24.20;;;17.63;;
11620;SDS011;5866;49.094;11.900;2023-03-01T04:13:20;26.43;;;18.43;;
11620;SDS011;5866;49.094;11.900;2023-03-01T04:15:49;26.10;;;16.67;;
11620;SDS011;5866;49.094;11.900;2023-03-01T04:18:18;27.77;;;16.10;;
11620;SDS011;5866;49.094;11.900;2023-03-01T04:20:47;28.07;;;20.10;;
11620;SDS011;5866;49.094;11.900;2023-03-01T04:23:15;21.50;;;15.33;;
11620;SDS011;5866;49.094;11.900;2023-03-01T04:25:49;26.33;;;16.57;;
11620;SDS011;5866;49.094;11.900;2023-03-01T04:28:21;26.93;;;16.17;;
11620;SDS011;5866;49.094;11.900;2023-03-01T04:30:50;27.77;;;16.07;;
11620;SDS011;5866;49.094;11.900;2023-03-01T04:33:19;23.00;;;14.93;;
11620;SDS011;5866;49.094;11.900;2023-03-01T04:35:46;23.37;;;16.23;;
11620;SDS011;5866;49.094;11.900;2023-03-01T04:38:15;27.10;;;17.17;;
11620;SDS011;5866;49.094;11.900;2023-03-01T04:40:44;21.87;;;13.80;;
11620;SDS011;5866;49.094;11.900;2023-03-01T04:43:13;26.77;;;15.90;;
11620;SDS011;5866;49.094;11.900;2023-03-01T04:45:41;24.20;;;16.27;;
11620;SDS011;5866;49.094;11.900;2023-03-01T04:48:08;25.60;;;16.30;;
11620;SDS011;5866;49.094;11.900;2023-03-01T04:50:36;23.20;;;14.73;;
11620;SDS011;5866;49.094;11.900;2023-03-01T04:53:03;25.00;;;17.00;;
11620;SDS011;5866;49.094;11.900;2023-03-01T04:55:31;26.90;;;17.33;;
11620;SDS011;5866;49.094;11.900;2023-03-01T04:57:58;25.90;;;17.30;;
11620;SDS011;5866;49.094;11.900;2023-03-01T05:00:27;26.07;;;16.37;;
11620;SDS011;5866;49.094;11.900;2023-03-01T05:02:55;23.53;;;17.20;;
11620;SDS011;5866;49.094;11.900;2023-03-01T05:05:26;21.50;;;15.00;;
11620;SDS011;5866;49.094;11.900;2023-03-01T05:07:55;22.90;;;15.53;;
11620;SDS011;5866;49.094;11.900;2023-03-01T05:10:24;25.83;;;17.33;;
11620;SDS011;5866;49.094;11.900;2023-03-01T05:12:55;26.43;;;17.13;;
11620;SDS011;5866;49.094;11.900;2023-03-01T05:15:23;26.23;;;17.13;;
11620;SDS011;5866;49.094;11.900;2023-03-01T05:17:53;26.20;;;18.80;;
11620;SDS011;5866;49.094;11.900;2023-03-01T05:20:24;25.70;;;18.30;;
11620;SDS011;5866;49.094;11.900;2023-03-01T05:22:54;22.73;;;16.63;;
11620;SDS011;5866;49.094;11.900;2023-03-01T05:25:24;21.63;;;14.50;;
11620;SDS011;5866;49.094;11.900;2023-03-01T05:27:52;26.00;;;18.63;;
11620;SDS011;5866;49.094;11.900;2023-03-01T05:30:19;24.57;;;16.20;;
11620;SDS011;5866;49.094;11.900;2023-03-01T05:32:48;30.43;;;19.33;;
11620;SDS011;5866;49.094;11.900;2023-03-01T05:35:23;25.20;;;17.53;;
11620;SDS011;5866;49.094;11.900;2023-03-01T05:37:50;26.57;;;18.93;;
11620;SDS011;5866;49.094;11.900;2023-03-01T05:40:20;26.87;;;18.20;;
11620;SDS011;5866;49.094;11.900;2023-03-01T05:42:50;28.63;;;19.93;;
11620;SDS011;5866;49.094;11.900;2023-03-01T05:45:20;28.73;;;20.37;;
11620;SDS011;5866;49.094;11.900;2023-03-01T05:47:49;21.83;;;17.30;;
11620;SDS011;5866;49.094;11.900;2023-03-01T05:50:17;26.63;;;19.17;;
11620;SDS011;5866;49.094;11.900;2023-03-01T05:52:48;27.40;;;20.10;;
11620;SDS011;5866;49.094;11.900;2023-03-01T05:55:17;23.70;;;16.93;;
11620;SDS011;5866;49.094;11.900;2023-03-01T05:57:46;25.87;;;18.10;;
11620;SDS011;5866;49.094;11.900;2023-03-01T06:00:16;28.23;;;20.43;;
11620;SDS011;5866;49.094;11.900;2023-03-01T06:02:45;26.77;;;18.20;;
11620;SDS011;5866;49.094;11.900;2023-03-01T06:05:13;27.17;;;19.27;;
11620;SDS011;5866;49.094;11.900;2023-03-01T06:07:41;26.93;;;19.03;;
11620;SDS011;5866;49.094;11.900;2023-03-01T06:10:11;29.30;;;19.53;;
11620;SDS011;5866;49.094;11.900;2023-03-01T06:12:40;28.50;;;19.53;;
11620;SDS011;5866;49.094;11.900;2023-03-01T06:15:10;31.87;;;20.83;;
11620;SDS011;5866;49.094;11.900;2023-03-01T06:17:39;30.07;;;20.03;;
11620;SDS011;5866;49.094;11.900;2023-03-01T06:20:08;36.70;;;21.97;;
11620;SDS011;5866;49.094;11.900;2023-03-01T06:22:38;32.73;;;21.73;;
11620;SDS011;5866;49.094;11.900;2023-03-01T06:25:06;30.57;;;19.57;;
11620;SDS011;5866;49.094;11.900;2023-03-01T06:27:35;29.33;;;18.70;;
11620;SDS011;5866;49.094;11.900;2023-03-01T06:30:03;30.53;;;22.70;;
11620;SDS011;5866;49.094;11.900;2023-03-01T06:32:32;31.53;;;21.83;;
11620;SDS011;5866;49.094;11.900;2023-03-01T06:34:59;29.53;;;19.10;;
11620;SDS011;5866;49.094;11.900;2023-03-01T06:37:27;29.67;;;20.97;;
11620;SDS011;5866;49.094;11.900;2023-03-01T06:39:54;29.00;;;20.67;;
11620;SDS011;5866;49.094;11.900;2023-03-01T06:42:22;31.97;;;22.17;;
11620;SDS011;5866;49.094;11.900;2023-03-01T06:44:51;34.13;;;20.67;;
11620;SDS011;5866;49.094;11.900;2023-03-01T06:47:18;29.53;;;19.73;;
11620;SDS011;5866;49.094;11.900;2023-03-01T06:49:46;33.47;;;20.30;;
11620;SDS011;5866;49.094;11.900;2023-03-01T06:52:13;31.23;;;20.37;;
11620;SDS011;5866;49.094;11.900;2023-03-01T06:54:41;26.37;;;15.20;;
11620;SDS011;5866;49.094;11.900;2023-03-01T06:57:08;27.57;;;19.33;;
11620;SDS011;5866;49.094;11.900;2023-03-01T06:59:36;30.20;;;19.67;;
11620;SDS011;5866;49.094;11.900;2023-03-01T07:02:05;30.53;;;19.93;;
11620;SDS011;5866;49.094;11.900;2023-03-01T07:04:32;21.40;;;15.40;;
11620;SDS011;5866;49.094;11.900;2023-03-01T07:07:01;29.13;;;18.97;;
11620;SDS011;5866;49.094;11.900;2023-03-01T07:09:28;32.37;;;21.00;;
11620;SDS011;5866;49.094;11.900;2023-03-01T07:11:56;25.17;;;17.07;;
11620;SDS011;5866;49.094;11.900;2023-03-01T07:14:24;25.10;;;15.10;;
11620;SDS011;5866;49.094;11.900;2023-03-01T07:16:52;20.70;;;11.77;;
11620;SDS011;5866;49.094;11.900;2023-03-01T07:19:21;26.40;;;14.67;;
11620;SDS011;5866;49.094;11.900;2023-03-01T07:21:49;17.53;;;11.77;;
11620;SDS011;5866;49.094;11.900;2023-03-01T07:24:16;23.27;;;14.47;;
11620;SDS011;5866;49.094;11.900;2023-03-01T07:26:44;24.87;;;16.20;;
11620;SDS011;5866;49.094;11.900;2023-03-01T07:29:14;21.47;;;12.67;;
11620;SDS011;5866;49.094;11.900;2023-03-01T07:31:42;25.37;;;16.83;;
11620;SDS011;5866;49.094;11.900;2023-03-01T07:34:10;18.40;;;12.80;;
11620;SDS011;5866;49.094;11.900;2023-03-01T07:36:39;21.53;;;15.17;;
11620;SDS011;5866;49.094;11.900;2023-03-01T07:39:09;20.17;;;11.30;;
11620;SDS011;5866;49.094;11.900;2023-03-01T07:41:37;19.60;;;11.33;;
11620;SDS011;5866;49.094;11.900;2023-03-01T07:44:04;16.93;;;11.80;;
11620;SDS011;5866;49.094;11.900;2023-03-01T07:46:32;21.50;;;18.63;;
11620;SDS011;5866;49.094;11.900;2023-03-01T07:49:00;18.57;;;10.67;;
11620;SDS011;5866;49.094;11.900;2023-03-01T07:51:27;11.60;;;8.93;;
11620;SDS011;5866;49.094;11.900;2023-03-01T07:53:56;24.43;;;16.93;;
11620;SDS011;5866;49.094;11.900;2023-03-01T07:56:23;18.27;;;10.43;;
11620;SDS011;5866;49.094;11.900;2023-03-01T07:58:51;18.77;;;11.27;;
11620;SDS011;5866;49.094;11.900;2023-03-01T08:01:19;23.93;;;11.73;;
11620;SDS011;5866;49.094;11.900;2023-03-01T08:03:48;22.93;;;13.33;;
11620;SDS011;5866;49.094;11.900;2023-03-01T08:06:16;17.53;;;11.50;;
11620;SDS011;5866;49.094;11.900;2023-03-01T08:08:44;15.07;;;8.83;;
11620;SDS011;5866;49.094;11.900;2023-03-01T08:11:14;19.83;;;11.57;;
11620;SDS011;5866;49.094;11.900;2023-03-01T08:13:42;21.67;;;13.73;;
11620;SDS011;5866;49.094;11.900;2023-03-01T08:16:11;18.33;;;11.43;;
11620;SDS011;5866;49.094;11.900;2023-03-01T08:18:40;21.80;;;13.07;;
11620;SDS011;5866;49.094;11.900;2023-03-01T08:21:09;19.20;;;11.70;;
11620;SDS011;5866;49.094;11.900;2023-03-01T08:23:38;20.20;;;11.77;;
11620;SDS011;5866;49.094;11.900;2023-03-01T08:26:07;22.53;;;15.13;;
11620;SDS011;5866;49.094;11.900;2023-03-01T08:28:37;22.23;;;13.97;;
11620;SDS011;5866;49.094;11.900;2023-03-01T08:31:12;18.70;;;13.17;;
11620;SDS011;5866;49.094;11.900;2023-03-01T08:33:41;21.73;;;14.70;;
11620;SDS011;5866;49.094;11.900;2023-03-01T08:36:08;16.27;;;10.73;;
11620;SDS011;5866;49.094;11.900;2023-03-01T08:38:36;17.70;;;13.20;;
11620;SDS011;5866;49.094;11.900;2023-03-01T08:41:03;13.93;;;10.20;;
11620;SDS011;5866;49.094;11.900;2023-03-01T08:43:31;16.90;;;12.23;;
11620;SDS011;5866;49.094;11.900;2023-03-01T08:46:00;26.37;;;16.20;;
11620;SDS011;5866;49.094;11.900;2023-03-01T08:48:28;19.77;;;12.60;;
11620;SDS011;5866;49.094;11.900;2023-03-01T08:50:55;17.20;;;12.00;;
11620;SDS011;5866;49.094;11.900;2023-03-01T08:53:23;21.40;;;13.83;;
11620;SDS011;5866;49.094;11.900;2023-03-01T08:55:50;20.53;;;14.13;;
11620;SDS011;5866;49.094;11.900;2023-03-01T08:58:18;23.30;;;13.77;;
11620;SDS011;5866;49.094;11.900;2023-03-01T09:00:45;31.73;;;14.93;;
11620;SDS011;5866;49.094;11.900;2023-03-01T09:03:14;20.77;;;13.03;;
11620;SDS011;5866;49.094;11.900;2023-03-01T09:05:41;16.80;;;10.77;;
11620;SDS011;5866;49.094;11.900;2023-03-01T09:08:12;18.23;;;11.33;;
11620;SDS011;5866;49.094;11.900;2023-03-01T09:10:39;22.67;;;14.60;;
11620;SDS011;5866;49.094;11.900;2023-03-01T09:13:07;21.53;;;13.13;;
11620;SDS011;5866;49.094;11.900;2023-03-01T09:15:36;22.10;;;13.03;;
11620;SDS011;5866;49.094;11.900;2023-03-01T09:18:04;19.40;;;12.67;;
11620;SDS011;5866;49.094;11.900;2023-03-01T09:20:33;23.07;;;14.53;;
11620;SDS011;5866;49.094;11.900;2023-03-01T09:23:01;19.53;;;13.77;;
11620;SDS011;5866;49.094;11.900;2023-03-01T09:25:28;20.80;;;13.83;;
11620;SDS011;5866;49.094;11.900;2023-03-01T09:27:56;18.67;;;13.90;;
11620;SDS011;5866;49.094;11.900;2023-03-01T09:30:23;17.77;;;11.37;;
11620;SDS011;5866;49.094;11.900;2023-03-01T09:32:51;18.67;;;11.33;;
11620;SDS011;5866;49.094;11.900;2023-03-01T09:35:19;19.30;;;13.37;;
11620;SDS011;5866;49.094;11.900;2023-03-01T09:37:50;20.93;;;13.03;;
11620;SDS011;5866;49.094;11.900;2023-03-01T09:40:19;19.20;;;13.17;;
11620;SDS011;5866;49.094;11.900;2023-03-01T09:42:51;19.23;;;12.30;;
11620;SDS011;5866;49.094;11.900;2023-03-01T09:45:27;18.63;;;12.73;;
11620;SDS011;5866;49.094;11.900;2023-03-01T09:48:00;17.40;;;12.30;;
11620;SDS011;5866;49.094;11.900;2023-03-01T09:50:32;23.03;;;13.53;;
11620;SDS011;5866;49.094;11.900;2023-03-01T09:53:05;19.37;;;13.60;;
11620;SDS011;5866;49.094;11.900;2023-03-01T09:55:37;19.83;;;13.07;;
11620;SDS011;5866;49.094;11.900;2023-03-01T09:58:19;19.60;;;11.67;;
11620;SDS011;5866;49.094;11.900;2023-03-01T10:00:57;14.30;;;9.93;;
11620;SDS011;5866;49.094;11.900;2023-03-01T10:03:31;18.83;;;13.20;;
11620;SDS011;5866;49.094;11.900;2023-03-01T10:06:04;20.00;;;11.20;;
11620;SDS011;5866;49.094;11.900;2023-03-01T10:08:59;19.27;;;11.80;;
11620;SDS011;5866;49.094;11.900;2023-03-01T10:11:33;19.63;;;12.13;;
11620;SDS011;5866;49.094;11.900;2023-03-01T10:14:05;14.83;;;10.17;;
11620;SDS011;5866;49.094;11.900;2023-03-01T10:16:43;14.67;;;10.50;;
11620;SDS011;5866;49.094;11.900;2023-03-01T10:19:20;18.13;;;11.73;;
11620;SDS011;5866;49.094;11.900;2023-03-01T10:21:52;14.90;;;8.50;;
11620;SDS011;5866;49.094;11.900;2023-03-01T10:24:21;19.80;;;12.17;;
11620;SDS011;5866;49.094;11.900;2023-03-01T10:26:52;14.17;;;9.43;;
11620;SDS011;5866;49.094;11.900;2023-03-01T10:29:23;13.80;;;9.63;;
11620;SDS011;5866;49.094;11.900;2023-03-01T10:31:56;16.23;;;7.73;;
11620;SDS011;5866;49.094;11.900;2023-03-01T10:34:27;19.90;;;9.47;;
11620;SDS011;5866;49.094;11.900;2023-03-01T10:36:58;13.40;;;8.27;;
11620;SDS011;5866;49.094;11.900;2023-03-01T10:39:36;14.00;;;10.03;;
11620;SDS011;5866;49.094;11.900;2023-03-01T10:42:22;13.60;;;9.10;;
11620;SDS011;5866;49.094;11.900;2023-03-01T10:44:54;14.30;;;8.10;;
11620;SDS011;5866;49.094;11.900;2023-03-01T10:47:22;12.87;;;8.17;;
11620;SDS011;5866;49.094;11.900;2023-03-01T10:49:53;13.37;;;8.73;;
11620;SDS011;5866;49.094;11.900;2023-03-01T10:52:24;11.70;;;8.23;;
11620;SDS011;5866;49.094;11.900;2023-03-01T10:54:56;11.53;;;7.80;;
11620;SDS011;5866;49.094;11.900;2023-03-01T10:57:37;12.37;;;9.07;;
11620;SDS011;5866;49.094;11.900;2023-03-01T11:00:21;12.70;;;7.77;;
11620;SDS011;5866;49.094;11.900;2023-03-01T11:03:02;16.10;;;10.07;;
11620;SDS011;5866;49.094;11.900;2023-03-01T11:05:37;11.07;;;7.20;;
11620;SDS011;5866;49.094;11.900;2023-03-01T11:08:28;13.63;;;9.47;;
11620;SDS011;5866;49.094;11.900;2023-03-01T11:11:05;13.07;;;9.43;;
11620;SDS011;5866;49.094;11.900;2023-03-01T11:13:46;15.70;;;11.10;;
11620;SDS011;5866;49.094;11.900;2023-03-01T11:16:22;26.07;;;12.50;;
11620;SDS011;5866;49.094;11.900;2023-03-01T11:19:07;17.50;;;11.30;;
11620;SDS011;5866;49.094;11.900;2023-03-01T11:21:43;14.57;;;10.03;;
11620;SDS011;5866;49.094;11.900;2023-03-01T11:24:19;14.10;;;10.18;;
11620;SDS011;5866;49.094;11.900;2023-03-01T11:26:52;17.85;;;11.48;;
11620;SDS011;5866;49.094;11.900;2023-03-01T11:29:26;14.85;;;10.85;;
11620;SDS011;5866;49.094;11.900;2023-03-01T11:32:08;16.60;;;11.30;;
11620;SDS011;5866;49.094;11.900;2023-03-01T11:34:42;18.35;;;8.30;;
11620;SDS011;5866;49.094;11.900;2023-03-01T11:37:15;12.45;;;8.50;;
11620;SDS011;5866;49.094;11.900;2023-03-01T11:39:53;10.32;;;6.47;;
11620;SDS011;5866;49.094;11.900;2023-03-01T11:42:29;16.17;;;9.63;;
11620;SDS011;5866;49.094;11.900;2023-03-01T11:45:08;12.32;;;9.38;;
11620;SDS011;5866;49.094;11.900;2023-03-01T11:50:35;9.77;;;6.45;;
11620;SDS011;5866;49.094;11.900;2023-03-01T11:53:17;16.52;;;8.88;;
11620;SDS011;5866;49.094;11.900;2023-03-01T11:56:03;11.43;;;8.45;;
11620;SDS011;5866;49.094;11.900;2023-03-01T11:58:43;14.43;;;9.13;;
11620;SDS011;5866;49.094;11.900;2023-03-01T12:01:24;13.13;;;9.38;;
11620;SDS011;5866;49.094;11.900;2023-03-01T12:04:20;13.50;;;6.65;;
11620;SDS011;5866;49.094;11.900;2023-03-01T12:07:04;10.57;;;6.97;;
11620;SDS011;5866;49.094;11.900;2023-03-01T12:09:46;14.15;;;9.30;;
11620;SDS011;5866;49.094;11.900;2023-03-01T12:12:25;14.10;;;8.93;;
11620;SDS011;5866;49.094;11.900;2023-03-01T12:15:11;15.90;;;10.32;;
11620;SDS011;5866;49.094;11.900;2023-03-01T12:18:17;13.67;;;8.30;;
11620;SDS011;5866;49.094;11.900;2023-03-01T12:20:58;14.35;;;9.80;;
11620;SDS011;5866;49.094;11.900;2023-03-01T12:23:39;11.90;;;9.15;;
11620;SDS011;5866;49.094;11.900;2023-03-01T12:26:24;9.95;;;6.55;;
11620;SDS011;5866;49.094;11.900;2023-03-01T12:29:02;16.63;;;10.95;;
11620;SDS011;5866;49.094;11.900;2023-03-01T12:31:53;17.27;;;10.48;;
11620;SDS011;5866;49.094;11.900;2023-03-01T12:34:37;11.73;;;9.07;;
11620;SDS011;5866;49.094;11.900;2023-03-01T12:37:25;15.50;;;9.10;;
11620;SDS011;5866;49.094;11.900;2023-03-01T12:40:10;12.30;;;8.07;;
11620;SDS011;5866;49.094;11.900;2023-03-01T12:42:51;12.23;;;9.80;;
11620;SDS011;5866;49.094;11.900;2023-03-01T12:45:33;11.80;;;7.70;;
11620;SDS011;5866;49.094;11.900;2023-03-01T12:48:17;14.43;;;9.50;;
11620;SDS011;5866;49.094;11.900;2023-03-01T12:50:57;9.52;;;7.45;;
11620;SDS011;5866;49.094;11.900;2023-03-01T12:53:28;10.55;;;8.18;;
11620;SDS011;5866;49.094;11.900;2023-03-01T12:55:59;14.50;;;9.68;;
11620;SDS011;5866;49.094;11.900;2023-03-01T12:58:29;20.13;;;11.57;;
11620;SDS011;5866;49.094;11.900;2023-03-01T13:01:22;14.35;;;9.27;;
11620;SDS011;5866;49.094;11.900;2023-03-01T13:04:07;14.35;;;9.85;;
11620;SDS011;5866;49.094;11.900;2023-03-01T13:06:43;14.63;;;9.10;;
11620;SDS011;5866;49.094;11.900;2023-03-01T13:09:18;15.25;;;10.98;;
11620;SDS011;5866;49.094;11.900;2023-03-01T13:11:49;14.30;;;8.27;;
11620;SDS011;5866;49.094;11.900;2023-03-01T13:17:33;11.43;;;7.10;;
11620;SDS011;5866;49.094;11.900;2023-03-01T13:20:14;11.80;;;7.95;;
11620;SDS011;5866;49.094;11.900;2023-03-01T13:22:43;11.82;;;8.60;;
11620;SDS011;5866;49.094;11.900;2023-03-01T13:25:20;11.25;;;8.73;;
11620;SDS011;5866;49.094;11.900;2023-03-01T13:31:03;13.75;;;9.40;;
11620;SDS011;5866;49.094;11.900;2023-03-01T13:33:37;13.55;;;8.65;;
11620;SDS011;5866;49.094;11.900;2023-03-01T13:36:10;11.52;;;9.10;;
11620;SDS011;5866;49.094;11.900;2023-03-01T13:38:44;14.57;;;10.48;;
11620;SDS011;5866;49.094;11.900;2023-03-01T13:41:14;13.67;;;8.83;;
11620;SDS011;5866;49.094;11.900;2023-03-01T13:43:42;18.43;;;11.77;;
11620;SDS011;5866;49.094;11.900;2023-03-01T13:46:12;13.90;;;9.53;;
11620;SDS011;5866;49.094;11.900;2023-03-01T13:48:47;14.87;;;11.20;;
11620;SDS011;5866;49.094;11.900;2023-03-01T13:51:21;19.50;;;11.55;;
11620;SDS011;5866;49.094;11.900;2023-03-01T13:53:52;16.03;;;9.57;;
11620;SDS011;5866;49.094;11.900;2023-03-01T13:56:23;16.85;;;11.60;;
11620;SDS011;5866;49.094;11.900;2023-03-01T13:58:53;18.65;;;11.35;;
11620;SDS011;5866;49.094;11.900;2023-03-01T14:01:27;16.63;;;12.23;;
11620;SDS011;5866;49.094;11.900;2023-03-01T14:03:56;17.40;;;12.18;;
11620;SDS011;5866;49.094;11.900;2023-03-01T14:06:28;21.73;;;13.17;;
11620;SDS011;5866;49.094;11.900;2023-03-01T14:09:02;18.03;;;10.67;;
11620;SDS011;5866;49.094;11.900;2023-03-01T14:11:40;18.75;;;12.45;;
11620;SDS011;5866;49.094;11.900;2023-03-01T14:14:31;17.13;;;14.70;;
11620;SDS011;5866;49.094;11.900;2023-03-01T14:17:25;21.23;;;13.07;;
11620;SDS011;5866;49.094;11.900;2023-03-01T14:20:03;17.92;;;12.80;;
11620;SDS011;5866;49.094;11.900;2023-03-01T14:22:37;17.33;;;11.52;;
11620;SDS011;5866;49.094;11.900;2023-03-01T14:25:22;21.63;;;14.77;;
11620;SDS011;5866;49.094;11.900;2023-03-01T14:27:54;18.80;;;12.18;;
11620;SDS011;5866;49.094;11.900;2023-03-01T14:30:25;18.10;;;10.97;;
11620;SDS011;5866;49.094;11.900;2023-03-01T14:32:55;17.08;;;11.48;;
11620;SDS011;5866;49.094;11.900;2023-03-01T14:35:24;13.57;;;10.70;;
11620;SDS011;5866;49.094;11.900;2023-03-01T14:37:54;18.03;;;11.97;;
11620;SDS011;5866;49.094;11.900;2023-03-01T14:40:23;14.35;;;10.48;;
11620;SDS011;5866;49.094;11.900;2023-03-01T14:42:52;16.50;;;10.83;;
11620;SDS011;5866;49.094;11.900;2023-03-01T14:45:22;19.27;;;10.60;;
11620;SDS011;5866;49.094;11.900;2023-03-01T14:47:52;17.40;;;10.40;;
11620;SDS011;5866;49.094;11.900;2023-03-01T14:50:23;18.70;;;12.23;;
11620;SDS011;5866;49.094;11.900;2023-03-01T14:52:55;16.10;;;11.13;;
11620;SDS011;5866;49.094;11.900;2023-03-01T14:55:26;16.33;;;10.97;;
11620;SDS011;5866;49.094;11.900;2023-03-01T14:57:56;18.97;;;11.03;;